Time;durP1;ratioP1;P1;durP2;ratioP2;P2;SDS_P1;SDS_P2;PMS_P1;PMS_P2;Temp;Humidity;BMP_temperature;BMP_pressure;BME280_temperature;BME280_humidity;BME280_pressure;Samples;Min_cycle;Max_cycle;Signal;HPM_P1;HPM_P2
2022/11/15 00:01:27;;;;;;;76.57;32.20;;;;;;;;;;5059681;28;20284;-68
2022/11/15 00:04:13;;;;;;;69.60;32.67;;;;;;;;;;5052137;28;20206;-68
2022/11/15 00:06:58;;;;;;;72.17;32.97;;;;;;;;;;5064222;28;20271;-68
2022/11/15 00:09:44;;;;;;;68.33;32.13;;;;;;;;;;5049778;28;20205;-69
2022/11/15 00:12:30;;;;;;;70.87;30.67;;;;;;;;;;5056811;28;20799;-69
2022/11/15 00:15:15;;;;;;;74.83;33.43;;;;;;;;;;5064368;28;20206;-68
2022/11/15 00:18:01;;;;;;;72.50;31.90;;;;;;;;;;5052438;28;20200;-69
2022/11/15 00:20:46;;;;;;;75.10;33.10;;;;;;;;;;5059294;28;20205;-69
2022/11/15 00:23:48;;;;;;;66.53;31.43;;;;;;;;;;5052069;28;20254;-69
2022/11/15 00:26:34;;;;;;;70.40;30.50;;;;;;;;;;5069712;28;20200;-69
2022/11/15 00:29:19;;;;;;;68.33;30.47;;;;;;;;;;5062464;28;20554;-69
2022/11/15 00:32:04;;;;;;;69.87;29.63;;;;;;;;;;5069577;28;20275;-68
2022/11/15 00:34:50;;;;;;;62.07;29.03;;;;;;;;;;5059429;28;20209;-68
2022/11/15 00:37:35;;;;;;;71.77;31.23;;;;;;;;;;5049973;28;20882;-68
2022/11/15 00:40:20;;;;;;;68.13;30.47;;;;;;;;;;5060875;28;20280;-69
2022/11/15 00:43:05;;;;;;;66.10;29.33;;;;;;;;;;5058811;28;20236;-69
2022/11/15 00:45:51;;;;;;;76.60;30.43;;;;;;;;;;5048170;28;20456;-68
2022/11/15 00:48:36;;;;;;;74.37;30.20;;;;;;;;;;5066647;28;20733;-68
2022/11/15 00:51:21;;;;;;;66.60;26.80;;;;;;;;;;5048465;28;20205;-68
2022/11/15 00:54:06;;;;;;;70.37;30.43;;;;;;;;;;5048980;28;20233;-69
2022/11/15 00:56:52;;;;;;;71.53;31.13;;;;;;;;;;5051673;28;20270;-68
2022/11/15 00:59:37;;;;;;;78.20;32.87;;;;;;;;;;5033546;28;20202;-70
2022/11/15 01:02:22;;;;;;;80.33;32.60;;;;;;;;;;5033487;28;20279;-68
2022/11/15 01:05:08;;;;;;;75.83;31.57;;;;;;;;;;5048278;28;20448;-69
2022/11/15 01:07:54;;;;;;;75.97;33.63;;;;;;;;;;5049360;28;20526;-68
2022/11/15 01:10:39;;;;;;;82.97;32.97;;;;;;;;;;5047755;28;20333;-69
2022/11/15 01:13:23;;;;;;;81.90;31.90;;;;;;;;;;5042358;28;20672;-68
2022/11/15 01:16:10;;;;;;;78.47;33.63;;;;;;;;;;5033745;28;20344;-69
2022/11/15 01:18:55;;;;;;;79.77;32.77;;;;;;;;;;5051044;28;20463;-69
2022/11/15 01:21:41;;;;;;;76.60;33.07;;;;;;;;;;5051405;28;21406;-69
2022/11/15 01:24:26;;;;;;;82.07;32.77;;;;;;;;;;5046682;28;20206;-70
2022/11/15 01:27:11;;;;;;;84.87;32.73;;;;;;;;;;5048042;28;20252;-68
2022/11/15 01:29:57;;;;;;;81.50;32.33;;;;;;;;;;5052248;28;20228;-68
2022/11/15 01:32:42;;;;;;;79.83;32.53;;;;;;;;;;5052739;28;20223;-69
2022/11/15 01:35:27;;;;;;;81.13;33.23;;;;;;;;;;5050088;28;20256;-69
2022/11/15 01:38:13;;;;;;;79.07;32.57;;;;;;;;;;5058817;28;20906;-69
2022/11/15 01:40:58;;;;;;;81.67;30.33;;;;;;;;;;5061648;28;20236;-70
2022/11/15 01:43:44;;;;;;;74.80;29.70;;;;;;;;;;5057775;28;20305;-69
2022/11/15 01:46:29;;;;;;;78.43;30.03;;;;;;;;;;5058624;28;20199;-68
2022/11/15 01:49:16;;;;;;;71.70;30.27;;;;;;;;;;5048275;28;20397;-68
2022/11/15 01:52:01;;;;;;;74.10;29.97;;;;;;;;;;5033412;28;20214;-68
2022/11/15 01:54:47;;;;;;;76.90;30.40;;;;;;;;;;5027043;28;20296;-69
2022/11/15 01:57:33;;;;;;;74.03;30.53;;;;;;;;;;5046308;28;20741;-69
2022/11/15 02:00:18;;;;;;;76.40;30.20;;;;;;;;;;5048627;28;20237;-69
2022/11/15 02:03:04;;;;;;;72.53;29.40;;;;;;;;;;5042582;28;20675;-68
2022/11/15 02:05:49;;;;;;;72.23;28.43;;;;;;;;;;5044248;28;20449;-68
2022/11/15 02:08:34;;;;;;;69.50;28.57;;;;;;;;;;5036218;28;20731;-69
2022/11/15 02:11:20;;;;;;;71.30;28.37;;;;;;;;;;5031706;28;20218;-69
2022/11/15 02:14:05;;;;;;;80.23;30.73;;;;;;;;;;5030802;28;20453;-68
2022/11/15 02:16:50;;;;;;;74.10;29.80;;;;;;;;;;5029920;28;20461;-69
2022/11/15 02:19:44;;;;;;;83.97;31.07;;;;;;;;;;5037789;28;20189;-68
2022/11/15 02:22:49;;;;;;;82.63;30.87;;;;;;;;;;5031736;28;20242;-68
2022/11/15 02:25:38;;;;;;;85.80;31.27;;;;;;;;;;5035814;28;20456;-68
2022/11/15 02:28:28;;;;;;;92.27;32.43;;;;;;;;;;5049713;28;20976;-68
2022/11/15 02:31:29;;;;;;;91.03;32.87;;;;;;;;;;5049979;28;20274;-68
2022/11/15 02:34:41;;;;;;;91.63;31.93;;;;;;;;;;5046966;28;20525;-69
2022/11/15 02:37:26;;;;;;;87.33;30.07;;;;;;;;;;5040678;28;20527;-69
2022/11/15 02:40:27;;;;;;;91.73;31.03;;;;;;;;;;5030950;28;20201;-69
2022/11/15 02:46:21;;;;;;;80.23;30.37;;;;;;;;;;5045881;28;20284;-69
2022/11/15 02:49:08;;;;;;;71.97;27.87;;;;;;;;;;5050465;28;20205;-68
2022/11/15 02:51:54;;;;;;;85.40;29.07;;;;;;;;;;5045358;28;20234;-69
2022/11/15 02:54:39;;;;;;;67.67;27.70;;;;;;;;;;5026320;28;20699;-69
2022/11/15 02:57:44;;;;;;;75.00;28.70;;;;;;;;;;5031331;28;20202;-69
2022/11/15 03:00:32;;;;;;;71.30;28.43;;;;;;;;;;5033321;28;20209;-68
2022/11/15 03:03:17;;;;;;;82.77;28.67;;;;;;;;;;5029682;28;20226;-68
2022/11/15 03:06:25;;;;;;;75.80;27.53;;;;;;;;;;5030618;28;20589;-68
2022/11/15 03:09:28;;;;;;;81.33;28.03;;;;;;;;;;5029816;28;20210;-69
2022/11/15 03:12:18;;;;;;;74.77;27.90;;;;;;;;;;5029921;28;20297;-68
2022/11/15 03:15:11;;;;;;;80.93;27.97;;;;;;;;;;5029504;28;20654;-68
2022/11/15 03:18:13;;;;;;;77.87;28.03;;;;;;;;;;5031447;28;20416;-69
2022/11/15 03:20:59;;;;;;;76.13;27.90;;;;;;;;;;5036682;28;20201;-68
2022/11/15 03:23:44;;;;;;;67.73;25.93;;;;;;;;;;5044337;28;20272;-69
2022/11/15 03:26:30;;;;;;;86.70;36.55;;;;;;;;;;5038559;28;20444;-69
2022/11/15 03:29:20;;;;;;;70.80;28.20;;;;;;;;;;5034432;28;20609;-69
2022/11/15 03:32:07;;;;;;;76.23;27.60;;;;;;;;;;5039798;28;20991;-69
2022/11/15 03:35:02;;;;;;;74.63;26.93;;;;;;;;;;5041641;28;20606;-69
2022/11/15 03:37:59;;;;;;;62.50;25.03;;;;;;;;;;5030745;28;20570;-69
2022/11/15 03:40:51;;;;;;;72.87;25.63;;;;;;;;;;5039136;28;20381;-69
2022/11/15 03:43:43;;;;;;;65.80;25.50;;;;;;;;;;5036905;28;20492;-69
2022/11/15 03:46:31;;;;;;;69.73;25.00;;;;;;;;;;5037489;28;20240;-69
2022/11/15 03:49:21;;;;;;;72.10;25.90;;;;;;;;;;5049566;28;20662;-69
2022/11/15 03:52:06;;;;;;;73.93;25.83;;;;;;;;;;5029260;28;20441;-69
2022/11/15 03:54:55;;;;;;;65.80;25.77;;;;;;;;;;5036756;28;20484;-69
2022/11/15 03:57:40;;;;;;;70.57;24.47;;;;;;;;;;5042565;28;20777;-69
2022/11/15 04:00:25;;;;;;;64.57;23.50;;;;;;;;;;5029097;28;20462;-69
2022/11/15 04:03:11;;;;;;;67.60;24.27;;;;;;;;;;5042982;28;20524;-68
2022/11/15 04:05:56;;;;;;;67.70;24.63;;;;;;;;;;5047533;28;20502;-69
2022/11/15 04:08:42;;;;;;;72.23;26.43;;;;;;;;;;5041979;28;20476;-69
2022/11/15 04:11:27;;;;;;;66.90;26.23;;;;;;;;;;5029109;28;20563;-68
2022/11/15 04:14:13;;;;;;;70.47;25.83;;;;;;;;;;5030122;28;20422;-69
2022/11/15 04:16:58;;;;;;;74.57;27.40;;;;;;;;;;5033197;28;20189;-68
2022/11/15 04:25:52;;;;;;;71.80;27.17;;;;;;;;;;5038605;28;20983;-68
2022/11/15 04:31:43;;;;;;;73.03;25.37;;;;;;;;;;5030552;28;20455;-68
2022/11/15 04:34:28;;;;;;;86.03;28.43;;;;;;;;;;5048039;28;20468;-69
2022/11/15 04:37:15;;;;;;;78.33;26.43;;;;;;;;;;5049450;28;20424;-69
2022/11/15 04:40:01;;;;;;;78.73;28.03;;;;;;;;;;5059758;28;20438;-69
2022/11/15 04:42:47;;;;;;;85.13;26.97;;;;;;;;;;5064672;28;21089;-68
2022/11/15 04:45:32;;;;;;;75.97;26.33;;;;;;;;;;5049321;28;20283;-69
2022/11/15 04:48:17;;;;;;;73.97;26.40;;;;;;;;;;5049475;28;20475;-69
2022/11/15 04:51:02;;;;;;;84.03;28.20;;;;;;;;;;5049664;28;20205;-69
2022/11/15 04:53:47;;;;;;;82.30;27.37;;;;;;;;;;5057256;28;20472;-68
2022/11/15 04:56:32;;;;;;;90.07;25.40;;;;;;;;;;5056589;28;20457;-68
2022/11/15 04:59:17;;;;;;;77.97;26.30;;;;;;;;;;5061601;28;20200;-68
2022/11/15 05:02:02;;;;;;;89.73;28.10;;;;;;;;;;5058619;28;20614;-69
2022/11/15 05:04:47;;;;;;;81.97;26.47;;;;;;;;;;5046987;28;20452;-71
2022/11/15 05:07:33;;;;;;;78.80;26.20;;;;;;;;;;5046158;28;20272;-68
2022/11/15 05:10:18;;;;;;;80.33;25.10;;;;;;;;;;5055903;28;20530;-68
2022/11/15 05:13:03;;;;;;;79.10;26.77;;;;;;;;;;5032074;28;20448;-68
2022/11/15 05:15:48;;;;;;;80.90;26.47;;;;;;;;;;5051726;28;20200;-68
2022/11/15 05:18:33;;;;;;;67.77;25.27;;;;;;;;;;5059766;28;20892;-68
2022/11/15 05:21:18;;;;;;;82.13;28.13;;;;;;;;;;5053117;28;20816;-68
2022/11/15 05:24:04;;;;;;;84.53;28.53;;;;;;;;;;5049596;28;20229;-68
2022/11/15 05:26:49;;;;;;;71.70;26.00;;;;;;;;;;5068972;28;20197;-68
2022/11/15 05:29:34;;;;;;;84.93;27.83;;;;;;;;;;5054184;28;20213;-68
2022/11/15 05:32:19;;;;;;;81.70;26.87;;;;;;;;;;5069044;28;20800;-68
2022/11/15 05:35:04;;;;;;;84.43;28.07;;;;;;;;;;5051549;28;20218;-68
2022/11/15 05:37:50;;;;;;;83.20;26.23;;;;;;;;;;5038188;28;20440;-68
2022/11/15 05:40:35;;;;;;;82.17;26.57;;;;;;;;;;5068781;28;20459;-68
2022/11/15 05:43:20;;;;;;;82.47;28.43;;;;;;;;;;5050059;28;20565;-69
2022/11/15 05:46:05;;;;;;;79.23;26.80;;;;;;;;;;5067412;28;20205;-69
2022/11/15 05:48:50;;;;;;;82.63;28.47;;;;;;;;;;5053736;28;20197;-69
2022/11/15 05:51:35;;;;;;;84.90;27.07;;;;;;;;;;5057941;28;20252;-68
2022/11/15 05:54:20;;;;;;;82.73;26.60;;;;;;;;;;5051627;28;20229;-69
2022/11/15 05:57:05;;;;;;;91.30;28.43;;;;;;;;;;5048572;28;20252;-69
2022/11/15 05:59:50;;;;;;;88.00;28.90;;;;;;;;;;5032478;28;20230;-68
2022/11/15 06:02:35;;;;;;;84.67;27.43;;;;;;;;;;5031645;28;20218;-69
2022/11/15 06:05:20;;;;;;;93.10;27.60;;;;;;;;;;5043892;28;20222;-69
2022/11/15 06:08:06;;;;;;;91.13;27.57;;;;;;;;;;5043184;28;20583;-69
2022/11/15 06:10:51;;;;;;;85.13;26.37;;;;;;;;;;5032517;28;20265;-69
2022/11/15 06:13:36;;;;;;;81.07;26.13;;;;;;;;;;5040981;28;20263;-69
2022/11/15 06:16:21;;;;;;;82.50;27.97;;;;;;;;;;5042312;28;20432;-69
2022/11/15 06:19:07;;;;;;;92.67;27.50;;;;;;;;;;5048871;28;20900;-69
2022/11/15 06:21:52;;;;;;;91.80;27.93;;;;;;;;;;5023428;28;20194;-68
2022/11/15 06:24:37;;;;;;;95.23;27.37;;;;;;;;;;5035000;28;21003;-68
2022/11/15 06:27:22;;;;;;;89.53;29.00;;;;;;;;;;5031739;28;20441;-69
2022/11/15 06:30:07;;;;;;;88.67;28.27;;;;;;;;;;5036577;28;20444;-68
2022/11/15 06:32:58;;;;;;;74.63;26.87;;;;;;;;;;5051762;28;20616;-68
2022/11/15 06:35:43;;;;;;;63.57;24.27;;;;;;;;;;5044435;28;20214;-68
2022/11/15 06:38:28;;;;;;;66.87;24.93;;;;;;;;;;5036647;28;20777;-69
2022/11/15 06:41:14;;;;;;;64.90;25.40;;;;;;;;;;5038336;28;20422;-71
2022/11/15 06:43:59;;;;;;;52.57;23.27;;;;;;;;;;5034826;28;20245;-70
2022/11/15 06:46:45;;;;;;;51.57;23.20;;;;;;;;;;5025807;28;20550;-69
2022/11/15 06:49:30;;;;;;;50.97;22.37;;;;;;;;;;5043609;28;20190;-68
2022/11/15 06:52:18;;;;;;;49.27;22.37;;;;;;;;;;5051675;28;20190;-70
2022/11/15 06:55:03;;;;;;;50.40;22.83;;;;;;;;;;5040179;28;20304;-69
2022/11/15 06:57:49;;;;;;;51.10;21.83;;;;;;;;;;5049966;28;20212;-69
2022/11/15 07:00:35;;;;;;;46.17;21.90;;;;;;;;;;5050028;28;20209;-69
2022/11/15 07:03:20;;;;;;;46.13;20.80;;;;;;;;;;5051789;28;20582;-68
2022/11/15 07:06:06;;;;;;;47.73;20.63;;;;;;;;;;5051121;28;20256;-68
2022/11/15 07:08:51;;;;;;;46.77;20.73;;;;;;;;;;5050342;28;20308;-69
2022/11/15 07:11:37;;;;;;;56.77;22.13;;;;;;;;;;5049231;28;20198;-68
2022/11/15 07:14:23;;;;;;;55.90;21.93;;;;;;;;;;5031455;28;20245;-68
2022/11/15 07:17:08;;;;;;;55.43;21.53;;;;;;;;;;5031343;28;20268;-69
2022/11/15 07:19:53;;;;;;;51.87;23.87;;;;;;;;;;5031416;28;20219;-68
2022/11/15 07:22:38;;;;;;;54.87;22.97;;;;;;;;;;5031547;28;20338;-68
2022/11/15 07:25:23;;;;;;;54.83;22.73;;;;;;;;;;5043927;28;20211;-68
2022/11/15 07:28:08;;;;;;;48.13;21.77;;;;;;;;;;5034789;28;20194;-68
2022/11/15 07:30:54;;;;;;;44.67;20.60;;;;;;;;;;5039278;28;20210;-69
2022/11/15 07:33:39;;;;;;;47.97;21.53;;;;;;;;;;5031754;28;20293;-68
2022/11/15 07:36:24;;;;;;;48.43;21.70;;;;;;;;;;5031269;28;20202;-68
2022/11/15 07:39:11;;;;;;;48.03;21.50;;;;;;;;;;5031227;28;20202;-68
2022/11/15 07:42:52;;;;;;;49.93;22.33;;;;;;;;;;5031134;28;20441;-69
2022/11/15 07:45:02;;;;;;;49.70;21.27;;;;;;;;;;5030826;28;20968;-68
2022/11/15 07:47:47;;;;;;;46.67;20.50;;;;;;;;;;5029700;28;20199;-69
2022/11/15 07:50:33;;;;;;;43.20;19.40;;;;;;;;;;5029520;28;20217;-68
2022/11/15 07:53:18;;;;;;;46.40;21.17;;;;;;;;;;5016605;28;20595;-68
2022/11/15 07:56:05;;;;;;;42.70;19.87;;;;;;;;;;5055794;28;20196;-68
2022/11/15 07:58:50;;;;;;;42.27;21.23;;;;;;;;;;5054784;28;20239;-69
2022/11/15 08:01:35;;;;;;;44.50;21.07;;;;;;;;;;5070859;28;20248;-68
2022/11/15 08:04:21;;;;;;;37.07;18.57;;;;;;;;;;5070200;28;20352;-68
2022/11/15 08:07:06;;;;;;;33.97;17.87;;;;;;;;;;5054944;28;20220;-69
2022/11/15 08:09:51;;;;;;;31.63;17.33;;;;;;;;;;5070261;28;20673;-69
2022/11/15 08:13:04;;;;;;;38.37;17.43;;;;;;;;;;5070475;28;20180;-69
2022/11/15 08:15:49;;;;;;;35.17;17.97;;;;;;;;;;5054629;28;20201;-69
2022/11/15 08:18:41;;;;;;;35.77;17.83;;;;;;;;;;5070049;28;20213;-68
2022/11/15 08:21:26;;;;;;;33.77;16.63;;;;;;;;;;5070691;28;20201;-69
2022/11/15 08:24:12;;;;;;;36.77;17.83;;;;;;;;;;5069130;28;20221;-68
2022/11/15 08:26:58;;;;;;;35.13;17.13;;;;;;;;;;5070452;28;20290;-69
2022/11/15 08:29:43;;;;;;;36.77;18.53;;;;;;;;;;5070421;28;20204;-68
2022/11/15 08:32:30;;;;;;;35.20;17.47;;;;;;;;;;5068909;28;20197;-68
2022/11/15 08:35:15;;;;;;;35.57;17.40;;;;;;;;;;5069860;28;20287;-68
2022/11/15 08:38:01;;;;;;;40.33;18.33;;;;;;;;;;5066682;28;20205;-68
2022/11/15 08:40:45;;;;;;;40.13;18.00;;;;;;;;;;5049736;28;20962;-69
2022/11/15 08:43:31;;;;;;;35.63;18.33;;;;;;;;;;5049977;28;20238;-68
2022/11/15 08:46:18;;;;;;;41.03;18.63;;;;;;;;;;5049976;28;20252;-69
2022/11/15 08:49:03;;;;;;;47.67;19.50;;;;;;;;;;5049790;28;20216;-68
2022/11/15 08:51:48;;;;;;;41.60;19.17;;;;;;;;;;5049915;28;20589;-69
2022/11/15 08:54:34;;;;;;;36.83;17.63;;;;;;;;;;5054517;28;20233;-68
2022/11/15 08:57:19;;;;;;;39.03;18.37;;;;;;;;;;5069626;28;20676;-69
2022/11/15 09:00:05;;;;;;;47.57;20.40;;;;;;;;;;5054906;28;20224;-68
2022/11/15 09:02:50;;;;;;;40.83;19.33;;;;;;;;;;5069700;28;20205;-68
2022/11/15 09:05:35;;;;;;;39.40;18.53;;;;;;;;;;5054448;28;20197;-69
2022/11/15 09:08:20;;;;;;;40.30;19.30;;;;;;;;;;5053780;28;20220;-68
2022/11/15 09:11:26;;;;;;;37.03;17.83;;;;;;;;;;5069627;28;21074;-68
2022/11/15 09:14:12;;;;;;;38.27;18.77;;;;;;;;;;5069608;28;20181;-68
2022/11/15 09:16:58;;;;;;;41.67;19.43;;;;;;;;;;5069289;28;20209;-69
2022/11/15 09:19:43;;;;;;;46.03;20.63;;;;;;;;;;5027465;28;20202;-69
2022/11/15 09:22:28;;;;;;;47.53;20.37;;;;;;;;;;5049079;28;20332;-69
2022/11/15 09:25:31;;;;;;;50.90;21.30;;;;;;;;;;5049344;28;20201;-68
2022/11/15 09:28:17;;;;;;;43.60;19.00;;;;;;;;;;5049357;28;20268;-68
2022/11/15 09:31:03;;;;;;;42.27;18.93;;;;;;;;;;5027949;28;20206;-68
2022/11/15 09:33:48;;;;;;;45.17;20.00;;;;;;;;;;5043336;28;20433;-68
2022/11/15 09:36:34;;;;;;;41.90;18.70;;;;;;;;;;5049284;28;20291;-69
2022/11/15 09:39:19;;;;;;;44.53;19.87;;;;;;;;;;5049594;28;20275;-68
2022/11/15 09:42:17;;;;;;;40.73;18.40;;;;;;;;;;5049085;28;20684;-68
2022/11/15 09:45:09;;;;;;;45.87;19.57;;;;;;;;;;5048981;28;20291;-68
2022/11/15 09:48:07;;;;;;;50.63;19.13;;;;;;;;;;5047761;28;20202;-68
2022/11/15 09:51:02;;;;;;;50.63;19.50;;;;;;;;;;5030933;28;20618;-68
2022/11/15 09:53:31;;;;;;;45.63;19.90;;;;;;;;;;5052151;28;20702;-69
2022/11/15 09:56:19;;;;;;;46.23;19.73;;;;;;;;;;5067864;28;20186;-68
2022/11/15 09:59:06;;;;;;;42.70;19.33;;;;;;;;;;5040079;28;20179;-68
2022/11/15 10:01:42;;;;;;;40.80;18.20;;;;;;;;;;5049205;28;20291;-68
2022/11/15 10:04:09;;;;;;;43.40;18.80;;;;;;;;;;5048847;28;20210;-68
2022/11/15 10:06:38;;;;;;;39.47;17.93;;;;;;;;;;5044367;28;20195;-68
2022/11/15 10:09:07;;;;;;;43.53;20.80;;;;;;;;;;5027525;28;20871;-67
2022/11/15 10:11:51;;;;;;;40.90;19.17;;;;;;;;;;5041671;28;20170;-68
2022/11/15 10:14:18;;;;;;;38.67;19.40;;;;;;;;;;5048867;28;20670;-68
2022/11/15 10:16:55;;;;;;;38.50;18.70;;;;;;;;;;5048709;28;21077;-68
2022/11/15 10:19:22;;;;;;;35.70;18.83;;;;;;;;;;5050406;28;20197;-68
2022/11/15 10:21:58;;;;;;;40.20;19.27;;;;;;;;;;5052423;28;20194;-68
2022/11/15 10:24:27;;;;;;;34.63;16.83;;;;;;;;;;5052641;28;20264;-68
2022/11/15 10:26:57;;;;;;;35.80;17.37;;;;;;;;;;5052168;28;20260;-67
2022/11/15 10:29:24;;;;;;;37.00;19.03;;;;;;;;;;5052346;28;20186;-68
2022/11/15 10:31:52;;;;;;;29.70;16.77;;;;;;;;;;5051901;28;20245;-68
2022/11/15 10:34:20;;;;;;;31.30;16.30;;;;;;;;;;5052175;28;20183;-68
2022/11/15 10:36:56;;;;;;;26.70;14.47;;;;;;;;;;5052239;28;20179;-68
2022/11/15 10:39:23;;;;;;;26.70;13.90;;;;;;;;;;5052143;28;20179;-68
2022/11/15 10:41:50;;;;;;;28.30;15.47;;;;;;;;;;5053377;28;20187;-68
2022/11/15 10:44:18;;;;;;;29.00;15.43;;;;;;;;;;5071921;28;20301;-68
2022/11/15 10:47:04;;;;;;;27.37;14.53;;;;;;;;;;5071873;28;20231;-68
2022/11/15 10:49:31;;;;;;;26.97;14.40;;;;;;;;;;5053544;28;20261;-68
2022/11/15 10:52:16;;;;;;;26.60;14.40;;;;;;;;;;5070974;28;20787;-68
2022/11/15 10:54:45;;;;;;;27.77;13.90;;;;;;;;;;5071565;28;20218;-68
2022/11/15 10:57:38;;;;;;;25.60;14.17;;;;;;;;;;5052529;28;20220;-69
2022/11/15 11:00:25;;;;;;;24.13;13.63;;;;;;;;;;5071695;28;20217;-68
2022/11/15 11:02:55;;;;;;;24.37;14.13;;;;;;;;;;5071449;28;20205;-68
2022/11/15 11:05:25;;;;;;;28.03;14.43;;;;;;;;;;5071318;28;20210;-68
2022/11/15 11:07:57;;;;;;;23.60;13.47;;;;;;;;;;5070355;28;20189;-68
2022/11/15 11:10:24;;;;;;;32.13;20.47;;;;;;;;;;5071227;28;20190;-69
2022/11/15 11:13:14;;;;;;;28.77;17.07;;;;;;;;;;5069010;28;20182;-68
2022/11/15 11:15:41;;;;;;;27.93;15.97;;;;;;;;;;5071666;28;20244;-68
2022/11/15 11:18:09;;;;;;;25.57;14.43;;;;;;;;;;5069801;28;20194;-68
2022/11/15 11:20:39;;;;;;;25.40;14.30;;;;;;;;;;5071103;28;20197;-68
2022/11/15 11:23:09;;;;;;;28.33;15.80;;;;;;;;;;5069959;28;20194;-68
2022/11/15 11:25:42;;;;;;;35.20;20.37;;;;;;;;;;5070816;28;20291;-68
2022/11/15 11:28:32;;;;;;;29.37;16.13;;;;;;;;;;5070994;28;20185;-68
2022/11/15 11:31:15;;;;;;;29.40;15.77;;;;;;;;;;5054285;28;20240;-68
2022/11/15 11:34:05;;;;;;;29.93;15.87;;;;;;;;;;5050834;28;20167;-68
2022/11/15 11:36:54;;;;;;;30.93;15.93;;;;;;;;;;5051374;28;20194;-68
2022/11/15 11:39:24;;;;;;;27.80;14.83;;;;;;;;;;5049773;28;20199;-68
2022/11/15 11:41:54;;;;;;;28.03;15.10;;;;;;;;;;5049575;28;20191;-69
2022/11/15 11:44:39;;;;;;;31.90;16.30;;;;;;;;;;5050493;28;20563;-67
2022/11/15 11:47:10;;;;;;;32.40;17.23;;;;;;;;;;5050823;28;20608;-67
2022/11/15 11:49:53;;;;;;;31.10;16.63;;;;;;;;;;5057416;28;20194;-67
2022/11/15 11:52:27;;;;;;;31.43;15.93;;;;;;;;;;5052345;28;20223;-67
2022/11/15 11:55:15;;;;;;;31.20;16.23;;;;;;;;;;5070560;28;20893;-67
2022/11/15 11:57:43;;;;;;;28.07;15.07;;;;;;;;;;5069156;28;20214;-67
2022/11/15 12:00:16;;;;;;;29.13;15.50;;;;;;;;;;5052836;28;20656;-67
2022/11/15 12:02:45;;;;;;;30.30;16.00;;;;;;;;;;5070380;28;20225;-67
2022/11/15 12:05:20;;;;;;;30.10;15.70;;;;;;;;;;5052644;28;20669;-67
2022/11/15 12:07:47;;;;;;;31.07;17.83;;;;;;;;;;5026207;28;20303;-67
2022/11/15 12:10:19;;;;;;;32.50;17.57;;;;;;;;;;5032629;28;20191;-67
2022/11/15 12:12:58;;;;;;;32.20;16.37;;;;;;;;;;5049209;28;20282;-67
2022/11/15 12:15:30;;;;;;;34.47;16.53;;;;;;;;;;5032633;28;20260;-67
2022/11/15 12:17:56;;;;;;;34.60;17.77;;;;;;;;;;5050403;28;20194;-67
2022/11/15 12:20:24;;;;;;;34.27;18.10;;;;;;;;;;5048870;28;20218;-67
2022/11/15 12:22:54;;;;;;;46.30;25.40;;;;;;;;;;5032266;28;20669;-67
2022/11/15 12:25:43;;;;;;;43.27;23.30;;;;;;;;;;5048660;28;20864;-67
2022/11/15 12:28:13;;;;;;;35.47;18.07;;;;;;;;;;5059534;28;20212;-67
2022/11/15 12:30:43;;;;;;;39.60;18.70;;;;;;;;;;5070129;28;20194;-67
2022/11/15 12:33:28;;;;;;;37.57;19.33;;;;;;;;;;5068605;28;20193;-67
2022/11/15 12:36:02;;;;;;;38.00;18.70;;;;;;;;;;5068781;28;20210;-67
2022/11/15 12:39:02;;;;;;;39.67;19.47;;;;;;;;;;5068226;28;20197;-67
2022/11/15 12:41:29;;;;;;;41.07;20.17;;;;;;;;;;5022316;28;20305;-67
2022/11/15 12:43:57;;;;;;;36.73;19.33;;;;;;;;;;5062535;28;20198;-67
2022/11/15 12:46:29;;;;;;;39.43;19.07;;;;;;;;;;5069607;28;20205;-67
2022/11/15 12:48:57;;;;;;;38.30;19.33;;;;;;;;;;5069567;28;20581;-67
2022/11/15 12:51:42;;;;;;;43.77;22.50;;;;;;;;;;5052204;28;20193;-68
2022/11/15 12:54:29;;;;;;;37.67;20.30;;;;;;;;;;5069389;28;20220;-67
2022/11/15 12:57:08;;;;;;;43.00;20.10;;;;;;;;;;5048147;28;20720;-67
2022/11/15 12:59:58;;;;;;;51.57;24.83;;;;;;;;;;5049350;28;20240;-68
2022/11/15 13:02:24;;;;;;;44.20;20.30;;;;;;;;;;5043116;28;20191;-68
2022/11/15 13:05:18;;;;;;;46.23;22.07;;;;;;;;;;5031268;28;20198;-67
2022/11/15 13:07:44;;;;;;;45.10;20.93;;;;;;;;;;5049601;28;20186;-67
2022/11/15 13:10:11;;;;;;;47.23;21.70;;;;;;;;;;5049055;28;20195;-67
2022/11/15 13:12:43;;;;;;;58.47;25.13;;;;;;;;;;5049422;28;20203;-68
2022/11/15 13:15:13;;;;;;;54.83;23.43;;;;;;;;;;5049365;28;20183;-67
2022/11/15 13:17:43;;;;;;;47.73;22.07;;;;;;;;;;5049526;28;20187;-67
2022/11/15 13:20:15;;;;;;;48.83;20.80;;;;;;;;;;5048164;28;20714;-67
2022/11/15 13:22:58;;;;;;;47.87;21.90;;;;;;;;;;5040810;28;20678;-67
2022/11/15 13:25:40;;;;;;;50.20;22.27;;;;;;;;;;5049646;28;20210;-67
2022/11/15 13:28:10;;;;;;;50.60;22.43;;;;;;;;;;5051390;28;20186;-66
2022/11/15 13:30:36;;;;;;;48.50;22.57;;;;;;;;;;5069589;28;20193;-67
2022/11/15 13:33:13;;;;;;;48.57;23.20;;;;;;;;;;5069422;28;20255;-66
2022/11/15 13:35:40;;;;;;;49.63;22.13;;;;;;;;;;5067256;28;20182;-66
2022/11/15 13:38:11;;;;;;;49.93;22.43;;;;;;;;;;5051433;28;20553;-66
2022/11/15 13:40:38;;;;;;;45.10;21.63;;;;;;;;;;5067726;28;20187;-66
2022/11/15 13:43:17;;;;;;;49.03;22.80;;;;;;;;;;5069399;28;20545;-67
2022/11/15 13:45:44;;;;;;;51.13;22.57;;;;;;;;;;5069383;28;20217;-67
2022/11/15 13:48:10;;;;;;;43.83;21.67;;;;;;;;;;5051221;28;20210;-68
2022/11/15 13:50:37;;;;;;;42.03;21.60;;;;;;;;;;5069247;28;20178;-67
2022/11/15 13:53:03;;;;;;;43.53;21.13;;;;;;;;;;5048359;28;20309;-68
2022/11/15 13:55:32;;;;;;;41.27;19.90;;;;;;;;;;5052343;28;20199;-68
2022/11/15 13:58:05;;;;;;;46.83;21.33;;;;;;;;;;5055509;28;20186;-67
2022/11/15 14:00:39;;;;;;;47.50;20.93;;;;;;;;;;5055953;28;20194;-70
2022/11/15 14:03:25;;;;;;;44.97;20.83;;;;;;;;;;5070256;28;20280;-70
2022/11/15 14:06:02;;;;;;;44.10;21.03;;;;;;;;;;5036872;28;20630;-76
2022/11/15 14:08:29;;;;;;;47.60;22.37;;;;;;;;;;5040178;28;20190;-69
2022/11/15 14:11:28;;;;;;;48.13;22.33;;;;;;;;;;5053784;28;20213;-69
2022/11/15 14:14:05;;;;;;;56.40;22.20;;;;;;;;;;5029863;28;20247;-69
2022/11/15 14:16:32;;;;;;;47.03;21.47;;;;;;;;;;5073270;28;20243;-69
2022/11/15 14:18:59;;;;;;;45.07;21.83;;;;;;;;;;5074623;28;20194;-69
2022/11/15 14:21:26;;;;;;;51.40;22.70;;;;;;;;;;5060671;28;20194;-70
2022/11/15 14:23:53;;;;;;;49.80;23.77;;;;;;;;;;5073863;28;20183;-69
2022/11/15 14:26:32;;;;;;;46.63;21.70;;;;;;;;;;5070325;28;20291;-69
2022/11/15 14:29:18;;;;;;;46.87;22.20;;;;;;;;;;5055763;28;20684;-69
2022/11/15 14:31:46;;;;;;;49.77;22.93;;;;;;;;;;5073415;28;20767;-69
2022/11/15 14:34:12;;;;;;;45.07;20.33;;;;;;;;;;5051795;28;20194;-71
2022/11/15 14:36:39;;;;;;;37.80;18.63;;;;;;;;;;5055670;28;20195;-69
2022/11/15 14:39:06;;;;;;;32.80;17.63;;;;;;;;;;5059763;28;20263;-69
2022/11/15 14:41:34;;;;;;;35.50;16.90;;;;;;;;;;5039384;28;20534;-68
2022/11/15 14:44:01;;;;;;;32.73;17.07;;;;;;;;;;5073040;28;20599;-69
2022/11/15 14:46:29;;;;;;;34.77;16.67;;;;;;;;;;5072962;28;20213;-69
2022/11/15 14:48:56;;;;;;;34.03;17.80;;;;;;;;;;5073429;28;20186;-69
2022/11/15 14:51:22;;;;;;;31.07;16.50;;;;;;;;;;5073579;28;20190;-69
2022/11/15 14:53:49;;;;;;;32.07;15.87;;;;;;;;;;5048413;28;20273;-69
2022/11/15 14:56:16;;;;;;;31.73;15.77;;;;;;;;;;5049187;28;20229;-68
2022/11/15 14:58:43;;;;;;;28.10;15.20;;;;;;;;;;5042771;28;20256;-68
2022/11/15 15:01:12;;;;;;;26.53;13.97;;;;;;;;;;5015025;28;20246;-69
2022/11/15 15:03:38;;;;;;;28.73;14.10;;;;;;;;;;5016893;28;20702;-69
2022/11/15 15:06:05;;;;;;;27.70;13.87;;;;;;;;;;5031907;28;20220;-69
2022/11/15 15:08:31;;;;;;;28.73;15.07;;;;;;;;;;5033457;28;20207;-69
2022/11/15 15:10:59;;;;;;;32.53;15.17;;;;;;;;;;5026787;28;20192;-69
2022/11/15 15:13:25;;;;;;;28.97;14.37;;;;;;;;;;5038972;28;20186;-69
2022/11/15 15:15:52;;;;;;;21.43;11.57;;;;;;;;;;5046832;28;20195;-69
2022/11/15 15:18:36;;;;;;;25.27;13.30;;;;;;;;;;5031568;28;20673;-69
2022/11/15 15:21:06;;;;;;;27.33;13.53;;;;;;;;;;5032123;28;20481;-69
2022/11/15 15:23:35;;;;;;;25.57;12.23;;;;;;;;;;5031074;28;20602;-69
2022/11/15 15:26:02;;;;;;;24.57;12.87;;;;;;;;;;5031025;28;20215;-69
2022/11/15 15:28:29;;;;;;;30.80;14.03;;;;;;;;;;5027782;28;20191;-69
2022/11/15 15:31:00;;;;;;;22.87;12.27;;;;;;;;;;5032328;28;20187;-69
2022/11/15 15:33:27;;;;;;;26.20;13.20;;;;;;;;;;5030797;28;20590;-69
2022/11/15 15:35:54;;;;;;;25.60;12.33;;;;;;;;;;5031482;28;20690;-69
2022/11/15 15:38:21;;;;;;;25.40;12.30;;;;;;;;;;5032202;28;20686;-69
2022/11/15 15:40:48;;;;;;;22.77;12.33;;;;;;;;;;5035378;28;20199;-68
2022/11/15 15:43:17;;;;;;;24.13;12.17;;;;;;;;;;5032628;28;20226;-69
2022/11/15 15:45:44;;;;;;;23.00;11.77;;;;;;;;;;5032278;28;20210;-69
2022/11/15 15:48:12;;;;;;;25.80;12.43;;;;;;;;;;5032146;28;20257;-68
2022/11/15 15:50:39;;;;;;;24.43;12.87;;;;;;;;;;5022975;28;20271;-69